MSC Paola — 9HA2581 — position and weather

sailwx.info

Track history (hours):
 
Tides and Currents Weather Stations Pressure Air Temp Water Temp Dewpoint Dewpoint Depression Visibility Wind Speed Wind Dir Waves Ship Positions

MSC Paola

Last reported at 2017-Jun-26 14:21 UTC. Time now 2017-Jun-26 22:39 UTC.
Position N 45°35' W 073°30'.

Length 243 m; draft 8.6 m.

Type: Ship (hazmat cat B). MMSI: 248931000.

Date/timePositionNaut miles runAvg speedWind from/ knotsBaromVisibWave heightAir tempDewpointWater temp
2017-Jun-26 14:21N 45°35' W 073°30'  
2017-Jun-18 22:59N 38°52' W 017°35'918.2
2017-Jun-18 22:30N 38°49' W 017°25'1918.4
2017-Jun-18 21:29N 38°42' W 017°02'918.3
2017-Jun-18 21:00N 38°38' W 016°52'1218.1
2017-Jun-18 20:20N 38°34' W 016°38'618.4
2017-Jun-18 20:00N 38°31' W 016°31'1118.5
2017-Jun-18 19:25N 38°27' W 016°18'1118.4
2017-Jun-18 18:49N 38°23' W 016°05'918.5
2017-Jun-18 18:19N 38°20' W 015°54'618.6
2017-Jun-18 18:01N 38°17' W 015°47'918.3
2017-Jun-18 17:31N 38°14' W 015°36'918.5
2017-Jun-18 17:00N 38°10' W 015°25'1018.5
2017-Jun-18 16:27N 38°06' W 015°14'818.8
2017-Jun-18 16:01N 38°03' W 015°04'1018.4
2017-Jun-18 15:27N 37°59' W 014°51'918.3
2017-Jun-18 14:57N 37°56' W 014°41'1718.2
2017-Jun-18 14:01N 37°49' W 014°21'918.1
2017-Jun-18 13:31N 37°46' W 014°10'918.4
2017-Jun-18 13:00N 37°42' W 013°59'918.4
2017-Jun-18 12:30N 37°39' W 013°49'918.5
2017-Jun-18 12:00N 37°35' W 013°38'918.6
2017-Jun-18 11:30N 37°31' W 013°27'918.7
2017-Jun-18 11:00N 37°28' W 013°16'918.8
2017-Jun-18 10:31N 37°24' W 013°06'918.9
2017-Jun-18 10:01N 37°20' W 012°54'919.0
2017-Jun-18 09:31N 37°17' W 012°43'918.8
2017-Jun-18 09:00N 37°13' W 012°32'918.5
2017-Jun-18 08:30N 37°10' W 012°22'918.3
2017-Jun-18 08:01N 37°06' W 012°11'918.1
2017-Jun-18 07:31N 37°03' W 012°01'918.0
2017-Jun-18 07:01N 36°60' W 011°50'918.2
2017-Jun-18 06:31N 36°56' W 011°40'918.2
2017-Jun-18 06:01N 36°53' W 011°29'918.3
2017-Jun-18 05:31N 36°49' W 011°19'918.5
2017-Jun-18 05:01N 36°45' W 011°08'918.4
2017-Jun-18 04:31N 36°42' W 010°57'918.4
2017-Jun-18 04:00N 36°39' W 010°47'918.3
2017-Jun-18 03:30N 36°35' W 010°36'9718.6
2017-Jun-17 22:17N 35°59' W 008°45'2018.4
2017-Jun-17 21:11N 35°58' W 008°19'318.6
2017-Jun-17 21:01N 35°58' W 008°16'1318.5
2017-Jun-17 20:18N 35°58' W 007°59'618.8
2017-Jun-17 20:00N 35°58' W 007°52'918.9
2017-Jun-17 19:31N 35°58' W 007°41'918.8
2017-Jun-17 19:01N 35°58' W 007°29'918.8
2017-Jun-17 18:31N 35°58' W 007°18'1018.9
2017-Jun-17 18:00N 35°58' W 007°06'918.8
2017-Jun-17 17:31N 35°58' W 006°54'2318.8
2017-Jun-17 16:18N 35°59' W 006°26'718.6
2017-Jun-17 15:56N 35°58' W 006°18'818.7
2017-Jun-17 15:30N 35°58' W 006°08'1019.0
2017-Jun-17 15:00N 35°58' W 005°56'1918.5
2017-Jun-17 14:00N 35°59' W 005°33'917.4
2017-Jun-17 13:30N 36°01' W 005°23'918.1
2017-Jun-17 13:00N 36°03' W 005°12'16717.7
2017-Jun-17 03:32N 36°42' W 001°50'118.7
2017-Jun-17 03:29N 36°42' W 001°49'918.7
2017-Jun-17 03:00N 36°48' W 001°40'918.8
2017-Jun-17 02:30N 36°54' W 001°31'1019.0
2017-Jun-17 02:00N 37°00' W 001°22'1019.1
2017-Jun-17 01:28N 37°07' W 001°12'919.2
2017-Jun-17 01:00N 37°13' W 001°04'918.8
2017-Jun-17 00:30N 37°19' W 000°55'918.5
2017-Jun-17 00:00N 37°25' W 000°46'918.4
2017-Jun-16 23:30N 37°31' W 000°37'918.4
2017-Jun-16 23:01N 37°38' W 000°30'918.2
2017-Jun-16 22:31N 37°46' W 000°24'918.4
2017-Jun-16 22:01N 37°53' W 000°18'1118.7
2017-Jun-16 21:25N 38°03' W 000°11'818.7
2017-Jun-16 21:00N 38°09' W 000°06'918.5
2017-Jun-16 20:30N 38°17' E 000°01'918.5
2017-Jun-16 20:00N 38°25' E 000°07'918.2
2017-Jun-16 19:30N 38°33' E 000°14'918.2
2017-Jun-16 19:00N 38°40' E 000°20'918.5
2017-Jun-16 18:30N 38°48' E 000°26'918.5
2017-Jun-16 18:00N 38°55' E 000°34'918.6
2017-Jun-16 17:30N 39°02' E 000°42'918.8
2017-Jun-16 17:00N 39°09' E 000°50'918.7
2017-Jun-16 16:30N 39°17' E 000°57'1518.7
2017-Jun-16 15:42N 39°28' E 001°09'418.7
2017-Jun-16 15:28N 39°30' E 001°14'918.5
2017-Jun-16 14:59N 39°35' E 001°24'1018.6
2017-Jun-16 14:27N 39°42' E 001°34'  
Track history (hours):
 
Tides and Currents Weather Stations Pressure Air Temp Water Temp Dewpoint Dewpoint Depression Visibility Wind Speed Wind Dir Waves Ship Positions

MSC Paola

Last reported at 2017-Jun-26 14:21 UTC. Time now 2017-Jun-26 22:39 UTC.
Position N 45°35' W 073°30'.

Length 243 m; draft 8.6 m.

Type: Ship (hazmat cat B). MMSI: 248931000.

Date/timePositionNaut miles runAvg speedWind from/ knotsBaromVisibWave heightAir tempDewpointWater temp
2017-Jun-26 14:21N 45°35' W 073°30'  
2017-Jun-18 22:59N 38°52' W 017°35'918.2
2017-Jun-18 22:30N 38°49' W 017°25'1918.4
2017-Jun-18 21:29N 38°42' W 017°02'918.3
2017-Jun-18 21:00N 38°38' W 016°52'1218.1
2017-Jun-18 20:20N 38°34' W 016°38'618.4
2017-Jun-18 20:00N 38°31' W 016°31'1118.5
2017-Jun-18 19:25N 38°27' W 016°18'1118.4
2017-Jun-18 18:49N 38°23' W 016°05'918.5
2017-Jun-18 18:19N 38°20' W 015°54'618.6
2017-Jun-18 18:01N 38°17' W 015°47'918.3
2017-Jun-18 17:31N 38°14' W 015°36'918.5
2017-Jun-18 17:00N 38°10' W 015°25'1018.5
2017-Jun-18 16:27N 38°06' W 015°14'818.8
2017-Jun-18 16:01N 38°03' W 015°04'1018.4
2017-Jun-18 15:27N 37°59' W 014°51'918.3
2017-Jun-18 14:57N 37°56' W 014°41'1718.2
2017-Jun-18 14:01N 37°49' W 014°21'918.1
2017-Jun-18 13:31N 37°46' W 014°10'918.4
2017-Jun-18 13:00N 37°42' W 013°59'918.4
2017-Jun-18 12:30N 37°39' W 013°49'918.5
2017-Jun-18 12:00N 37°35' W 013°38'918.6
2017-Jun-18 11:30N 37°31' W 013°27'918.7
2017-Jun-18 11:00N 37°28' W 013°16'918.8
2017-Jun-18 10:31N 37°24' W 013°06'918.9
2017-Jun-18 10:01N 37°20' W 012°54'919.0
2017-Jun-18 09:31N 37°17' W 012°43'918.8
2017-Jun-18 09:00N 37°13' W 012°32'918.5
2017-Jun-18 08:30N 37°10' W 012°22'918.3
2017-Jun-18 08:01N 37°06' W 012°11'918.1
2017-Jun-18 07:31N 37°03' W 012°01'918.0
2017-Jun-18 07:01N 36°60' W 011°50'918.2
2017-Jun-18 06:31N 36°56' W 011°40'918.2
2017-Jun-18 06:01N 36°53' W 011°29'918.3
2017-Jun-18 05:31N 36°49' W 011°19'918.5
2017-Jun-18 05:01N 36°45' W 011°08'918.4
2017-Jun-18 04:31N 36°42' W 010°57'918.4
2017-Jun-18 04:00N 36°39' W 010°47'918.3
2017-Jun-18 03:30N 36°35' W 010°36'9718.6
2017-Jun-17 22:17N 35°59' W 008°45'2018.4
2017-Jun-17 21:11N 35°58' W 008°19'318.6
2017-Jun-17 21:01N 35°58' W 008°16'1318.5
2017-Jun-17 20:18N 35°58' W 007°59'618.8
2017-Jun-17 20:00N 35°58' W 007°52'918.9
2017-Jun-17 19:31N 35°58' W 007°41'918.8
2017-Jun-17 19:01N 35°58' W 007°29'918.8
2017-Jun-17 18:31N 35°58' W 007°18'1018.9
2017-Jun-17 18:00N 35°58' W 007°06'918.8
2017-Jun-17 17:31N 35°58' W 006°54'2318.8
2017-Jun-17 16:18N 35°59' W 006°26'718.6
2017-Jun-17 15:56N 35°58' W 006°18'818.7
2017-Jun-17 15:30N 35°58' W 006°08'1019.0
2017-Jun-17 15:00N 35°58' W 005°56'1918.5
2017-Jun-17 14:00N 35°59' W 005°33'917.4
2017-Jun-17 13:30N 36°01' W 005°23'918.1
2017-Jun-17 13:00N 36°03' W 005°12'16717.7
2017-Jun-17 03:32N 36°42' W 001°50'118.7
2017-Jun-17 03:29N 36°42' W 001°49'918.7
2017-Jun-17 03:00N 36°48' W 001°40'918.8
2017-Jun-17 02:30N 36°54' W 001°31'1019.0
2017-Jun-17 02:00N 37°00' W 001°22'1019.1
2017-Jun-17 01:28N 37°07' W 001°12'919.2
2017-Jun-17 01:00N 37°13' W 001°04'918.8
2017-Jun-17 00:30N 37°19' W 000°55'918.5
2017-Jun-17 00:00N 37°25' W 000°46'918.4
2017-Jun-16 23:30N 37°31' W 000°37'918.4
2017-Jun-16 23:01N 37°38' W 000°30'918.2
2017-Jun-16 22:31N 37°46' W 000°24'918.4
2017-Jun-16 22:01N 37°53' W 000°18'1118.7
2017-Jun-16 21:25N 38°03' W 000°11'818.7
2017-Jun-16 21:00N 38°09' W 000°06'918.5
2017-Jun-16 20:30N 38°17' E 000°01'918.5
2017-Jun-16 20:00N 38°25' E 000°07'918.2
2017-Jun-16 19:30N 38°33' E 000°14'918.2
2017-Jun-16 19:00N 38°40' E 000°20'918.5
2017-Jun-16 18:30N 38°48' E 000°26'918.5
2017-Jun-16 18:00N 38°55' E 000°34'918.6
2017-Jun-16 17:30N 39°02' E 000°42'918.8
2017-Jun-16 17:00N 39°09' E 000°50'918.7
2017-Jun-16 16:30N 39°17' E 000°57'1518.7
2017-Jun-16 15:42N 39°28' E 001°09'418.7
2017-Jun-16 15:28N 39°30' E 001°14'918.5
2017-Jun-16 14:59N 39°35' E 001°24'1018.6
2017-Jun-16 14:27N 39°42' E 001°34'  

Dump ship's entire track history